createdAt,value
2022-11-27T00:01:44.062Z,10.50
2022-11-27T00:04:52.257Z,8.43
2022-11-27T00:08:00.489Z,8.38
2022-11-27T00:11:09.189Z,7.45
2022-11-27T00:14:17.491Z,10.18
2022-11-27T00:17:26.636Z,5.00
2022-11-27T00:20:34.494Z,9.82
2022-11-27T00:23:42.759Z,6.70
2022-11-27T00:26:50.854Z,5.90
2022-11-27T00:29:58.685Z,5.53
2022-11-27T00:33:08.071Z,4.60
2022-11-27T00:36:18.600Z,6.63
2022-11-27T00:39:27.543Z,8.63
2022-11-27T00:42:35.408Z,4.38
2022-11-27T00:45:43.241Z,5.53
2022-11-27T00:48:52.847Z,6.35
2022-11-27T00:52:01.003Z,5.82
2022-11-27T00:55:10.222Z,5.20
2022-11-27T00:58:18.319Z,6.40
2022-11-27T01:01:28.483Z,3.17
2022-11-27T01:04:38.145Z,6.28
2022-11-27T01:07:46.476Z,8.90
2022-11-27T01:10:55.598Z,7.65
2022-11-27T01:14:04.919Z,5.85
2022-11-27T01:17:13.151Z,3.10
2022-11-27T01:20:22.549Z,4.25
2022-11-27T01:23:30.601Z,6.10
2022-11-27T01:26:38.923Z,5.18
2022-11-27T01:29:46.749Z,7.90
2022-11-27T01:32:54.804Z,4.32
2022-11-27T01:36:05.590Z,5.10
2022-11-27T01:39:16.291Z,3.33
2022-11-27T01:42:24.272Z,3.20
2022-11-27T01:45:32.468Z,3.53
2022-11-27T01:48:40.257Z,2.10
2022-11-27T01:51:51.439Z,5.28
2022-11-27T01:55:01.035Z,3.78
2022-11-27T01:58:10.474Z,3.38
2022-11-27T02:01:18.425Z,3.80
2022-11-27T02:04:26.380Z,2.78
2022-11-27T02:07:35.831Z,3.45
2022-11-27T02:10:48.894Z,3.55
2022-11-27T02:13:59.521Z,3.10
2022-11-27T02:17:10.177Z,3.70
2022-11-27T02:20:28.656Z,3.20
2022-11-27T02:24:10.860Z,3.03
2022-11-27T02:28:00.777Z,4.37
2022-11-27T02:31:11.549Z,2.85
2022-11-27T02:34:24.415Z,3.35
2022-11-27T02:37:35.143Z,4.15
2022-11-27T02:40:45.700Z,3.40
2022-11-27T02:43:53.507Z,4.22
2022-11-27T02:47:03.132Z,4.88
2022-11-27T02:50:13.218Z,5.50
2022-11-27T02:53:23.261Z,4.28
2022-11-27T02:56:31.370Z,3.10
2022-11-27T02:59:39.718Z,3.42
2022-11-27T03:02:50.670Z,3.58
2022-11-27T03:06:01.175Z,2.92
2022-11-27T03:09:10.217Z,4.40
2022-11-27T03:12:18.086Z,3.08
2022-11-27T03:15:26.014Z,2.42
2022-11-27T03:18:38.515Z,5.45
2022-11-27T03:21:47.774Z,2.60
2022-11-27T03:24:55.821Z,5.03
2022-11-27T03:28:05.028Z,4.05
2022-11-27T03:31:12.994Z,3.60
2022-11-27T03:34:22.299Z,4.03
2022-11-27T03:37:30.536Z,4.25
2022-11-27T03:40:41.181Z,2.63
2022-11-27T03:43:52.529Z,3.35
2022-11-27T03:47:06.445Z,2.72
2022-11-27T03:50:23.734Z,2.88
2022-11-27T03:53:34.469Z,4.57
2022-11-27T03:56:44.085Z,2.67
2022-11-27T03:59:52.052Z,3.72
2022-11-27T04:03:00.158Z,3.15
2022-11-27T04:06:09.508Z,2.90
2022-11-27T04:09:17.700Z,4.20
2022-11-27T04:12:25.724Z,4.10
2022-11-27T04:15:33.856Z,4.90
2022-11-27T04:18:41.651Z,3.58
2022-11-27T04:21:50.803Z,2.50
2022-11-27T04:24:58.994Z,2.80
2022-11-27T04:28:07.242Z,4.70
2022-11-27T04:31:15.393Z,3.10
2022-11-27T04:34:23.873Z,3.22
2022-11-27T04:37:33.540Z,4.35
2022-11-27T04:40:41.695Z,4.70
2022-11-27T04:43:49.493Z,5.43
2022-11-27T04:46:57.853Z,3.90
2022-11-27T04:50:07.319Z,3.40
2022-11-27T04:53:16.491Z,4.80
2022-11-27T04:56:24.335Z,4.72
2022-11-27T04:59:32.172Z,3.53
2022-11-27T05:02:40.219Z,5.28
2022-11-27T05:05:54.743Z,3.60
2022-11-27T05:09:03.895Z,3.22
2022-11-27T05:12:11.952Z,2.80
2022-11-27T05:15:19.757Z,4.88
2022-11-27T05:18:27.889Z,3.60
2022-11-27T05:21:35.967Z,4.78
2022-11-27T05:24:45.397Z,4.32
2022-11-27T05:27:54.448Z,4.57
2022-11-27T05:31:02.439Z,3.00
2022-11-27T05:34:10.216Z,3.08
2022-11-27T05:37:19.694Z,2.95
2022-11-27T05:40:29.485Z,5.13
2022-11-27T05:43:37.434Z,3.65
2022-11-27T05:46:45.511Z,3.00
2022-11-27T05:49:53.752Z,5.43
2022-11-27T05:53:01.655Z,3.30
2022-11-27T05:56:11.912Z,3.47
2022-11-27T05:59:20.030Z,4.70
2022-11-27T06:02:29.617Z,3.72
2022-11-27T06:05:39.771Z,4.47
2022-11-27T06:08:47.706Z,4.80
2022-11-27T06:11:56.872Z,5.72
2022-11-27T06:15:05.293Z,2.63
2022-11-27T06:18:13.676Z,4.60
2022-11-27T06:21:22.045Z,4.28
2022-11-27T06:24:30.155Z,4.80
2022-11-27T06:27:39.407Z,3.78
2022-11-27T06:30:47.596Z,3.63
2022-11-27T06:33:55.951Z,3.95
2022-11-27T06:37:04.785Z,4.43
2022-11-27T06:40:14.565Z,4.43
2022-11-27T06:43:23.955Z,4.47
2022-11-27T06:46:31.953Z,3.03
2022-11-27T06:49:39.918Z,4.00
2022-11-27T06:52:48.031Z,3.75
2022-11-27T06:55:56.149Z,3.85
2022-11-27T06:59:05.389Z,4.70
2022-11-27T07:02:14.751Z,3.10
2022-11-27T07:05:22.921Z,3.30
2022-11-27T07:08:31.309Z,2.95
2022-11-27T07:11:39.635Z,5.80
2022-11-27T07:14:48.970Z,5.97
2022-11-27T07:17:57.260Z,3.30
2022-11-27T07:21:05.516Z,4.82
2022-11-27T07:24:13.341Z,5.55
2022-11-27T07:27:21.493Z,4.25
2022-11-27T07:30:31.106Z,3.22
2022-11-27T07:33:39.172Z,4.18
2022-11-27T07:36:46.991Z,3.63
2022-11-27T07:40:02.569Z,4.03
2022-11-27T07:43:11.576Z,4.30
2022-11-27T07:46:22.049Z,3.40
2022-11-27T07:49:30.183Z,9.93
2022-11-27T07:52:41.751Z,4.40
2022-11-27T07:55:50.063Z,3.65
2022-11-27T07:58:58.201Z,4.45
2022-11-27T08:02:07.611Z,2.88
2022-11-27T08:05:15.642Z,3.70
2022-11-27T08:08:23.456Z,4.70
2022-11-27T08:11:33.055Z,3.20
2022-11-27T08:14:41.395Z,3.83
2022-11-27T08:17:50.985Z,3.47
2022-11-27T08:21:01.333Z,6.40
2022-11-27T08:24:09.923Z,6.65
2022-11-27T08:27:18.295Z,8.50
2022-11-27T08:30:26.399Z,7.82
2022-11-27T08:33:35.703Z,6.47
2022-11-27T08:36:43.524Z,8.73
2022-11-27T08:39:51.451Z,7.60
2022-11-27T08:42:59.711Z,12.55
2022-11-27T08:46:08.118Z,5.25
2022-11-27T08:49:17.645Z,5.22
2022-11-27T08:52:26.393Z,5.82
2022-11-27T08:55:34.424Z,8.05
2022-11-27T08:58:42.545Z,5.72
2022-11-27T09:01:50.335Z,5.05
2022-11-27T09:04:59.995Z,4.13
2022-11-27T09:08:08.036Z,5.05
2022-11-27T09:11:16.998Z,4.25
2022-11-27T09:14:24.717Z,4.40
2022-11-27T09:17:32.818Z,5.10
2022-11-27T09:20:42.211Z,11.25
2022-11-27T09:23:53.778Z,6.22
2022-11-27T09:27:01.857Z,11.30
2022-11-27T09:30:10.871Z,9.52
2022-11-27T09:33:18.937Z,7.05
2022-11-27T09:36:28.435Z,5.88
2022-11-27T09:39:36.450Z,8.98
2022-11-27T09:42:48.386Z,6.72
2022-11-27T09:45:58.243Z,4.60
2022-11-27T09:49:07.504Z,3.45
2022-11-27T09:52:22.133Z,4.13
2022-11-27T09:55:41.712Z,8.43
2022-11-27T09:58:51.679Z,3.75
2022-11-27T10:01:59.842Z,6.85
2022-11-27T10:05:15.168Z,4.28
2022-11-27T10:08:28.942Z,4.10
2022-11-27T10:11:41.409Z,3.63
2022-11-27T10:14:57.951Z,2.50
2022-11-27T10:18:08.495Z,6.47
2022-11-27T10:21:17.860Z,5.10
2022-11-27T10:24:31.116Z,6.60
2022-11-27T10:27:41.943Z,3.40
2022-11-27T10:30:52.255Z,5.40
2022-11-27T10:34:02.695Z,8.02
2022-11-27T10:37:15.736Z,6.57
2022-11-27T10:43:33.380Z,3.47
2022-11-27T10:46:41.581Z,3.70
2022-11-27T10:49:49.491Z,3.15
2022-11-27T10:52:58.444Z,5.10
2022-11-27T10:56:22.468Z,3.10
2022-11-27T10:59:34.612Z,9.48
2022-11-27T11:02:42.940Z,3.75
2022-11-27T11:06:19.286Z,1.92
2022-11-27T11:09:27.148Z,6.30
2022-11-27T11:12:36.808Z,8.07
2022-11-27T11:15:51.961Z,5.22
2022-11-27T11:19:01.605Z,3.88
2022-11-27T11:22:14.741Z,6.10
2022-11-27T11:25:23.340Z,3.75
2022-11-27T11:28:37.992Z,5.20
2022-11-27T11:31:47.748Z,3.97
2022-11-27T11:35:00.790Z,6.07
2022-11-27T11:38:15.869Z,5.22
2022-11-27T11:41:24.204Z,20.40
2022-11-27T11:44:36.693Z,44.55
2022-11-27T11:47:46.194Z,65.15
2022-11-27T11:50:55.629Z,45.25
2022-11-27T11:54:10.686Z,59.17
2022-11-27T11:57:41.453Z,55.30
2022-11-27T12:01:25.490Z,48.25
2022-11-27T12:04:29.288Z,47.50
2022-11-27T12:07:51.821Z,43.67
2022-11-27T12:11:05.920Z,44.00
2022-11-27T12:14:20.424Z,34.97
2022-11-27T12:17:46.163Z,32.80
2022-11-27T12:20:59.949Z,37.10
2022-11-27T12:24:08.980Z,24.65
2022-11-27T12:27:03.502Z,28.70
2022-11-27T12:30:04.057Z,29.33
2022-11-27T12:33:27.850Z,21.88
2022-11-27T12:36:20.974Z,22.95
2022-11-27T12:39:11.795Z,23.20
2022-11-27T12:42:05.420Z,23.88
2022-11-27T12:44:55.904Z,20.63
2022-11-27T12:47:44.812Z,20.17
2022-11-27T12:50:35.912Z,21.20
2022-11-27T12:53:29.490Z,23.02
2022-11-27T12:56:20.912Z,20.35
2022-11-27T12:59:12.190Z,18.10
2022-11-27T13:02:02.845Z,17.10
2022-11-27T13:04:53.128Z,12.65
2022-11-27T13:07:44.302Z,13.88
2022-11-27T13:10:35.526Z,18.27
2022-11-27T13:13:24.393Z,13.80
2022-11-27T13:16:13.705Z,22.48
2022-11-27T13:19:05.693Z,15.60
2022-11-27T13:21:54.098Z,13.73
2022-11-27T13:24:42.029Z,16.05
2022-11-27T13:27:32.606Z,14.05
2022-11-27T13:30:21.907Z,8.98
2022-11-27T13:33:19.279Z,13.63
2022-11-27T13:36:08.928Z,10.60
2022-11-27T13:38:57.584Z,10.45
2022-11-27T13:41:45.090Z,14.27
2022-11-27T13:44:37.125Z,7.97
2022-11-27T13:47:44.279Z,13.40
2022-11-27T13:50:54.629Z,9.82
2022-11-27T13:54:10.408Z,9.32
2022-11-27T13:57:18.992Z,9.32
2022-11-27T14:00:36.488Z,16.35
2022-11-27T14:03:44.357Z,9.82
2022-11-27T14:06:54.135Z,7.22
2022-11-27T14:10:07.769Z,8.38
2022-11-27T14:13:15.790Z,8.80
2022-11-27T14:16:27.411Z,7.00
2022-11-27T14:19:36.743Z,9.57
2022-11-27T14:23:07.542Z,11.15
2022-11-27T14:26:21.449Z,5.20
2022-11-27T14:29:30.499Z,5.10
2022-11-27T14:32:39.737Z,8.35
2022-11-27T14:35:49.878Z,8.00
2022-11-27T14:38:57.842Z,5.95
2022-11-27T14:42:07.817Z,11.02
2022-11-27T14:45:17.184Z,5.55
2022-11-27T14:48:27.301Z,5.22
2022-11-27T14:51:37.287Z,4.13
2022-11-27T14:54:45.660Z,4.20
2022-11-27T14:57:53.715Z,6.30
2022-11-27T15:01:02.819Z,6.35
2022-11-27T15:03:58.304Z,11.85
2022-11-27T15:06:46.854Z,6.50
2022-11-27T15:09:36.440Z,6.97
2022-11-27T15:12:24.900Z,7.68
2022-11-27T15:15:16.975Z,5.78
2022-11-27T15:18:05.931Z,6.07
2022-11-27T15:20:55.456Z,8.73
2022-11-27T15:23:45.902Z,6.43
2022-11-27T15:26:34.793Z,4.28
2022-11-27T15:29:36.156Z,4.70
2022-11-27T15:32:25.068Z,6.30
2022-11-27T15:35:14.647Z,7.22
2022-11-27T15:38:11.528Z,6.28
2022-11-27T15:41:01.873Z,7.43
2022-11-27T15:43:50.357Z,6.47
2022-11-27T15:46:42.690Z,5.40
2022-11-27T15:49:30.437Z,6.03
2022-11-27T15:52:18.235Z,3.75
2022-11-27T15:55:08.616Z,4.65
2022-11-27T15:57:58.351Z,4.50
2022-11-27T16:00:46.495Z,4.30
2022-11-27T16:03:34.559Z,5.13
2022-11-27T16:06:23.413Z,6.93
2022-11-27T16:09:10.936Z,5.53
2022-11-27T16:12:00.516Z,7.13
2022-11-27T16:14:47.997Z,6.22
2022-11-27T16:17:35.580Z,5.75
2022-11-27T16:20:23.504Z,7.00
2022-11-27T16:23:11.320Z,6.35
2022-11-27T16:25:59.428Z,7.68
2022-11-27T16:28:48.249Z,4.63
2022-11-27T16:31:37.462Z,5.00
2022-11-27T16:34:25.115Z,4.68
2022-11-27T16:37:18.249Z,3.72
2022-11-27T16:40:08.247Z,6.68
2022-11-27T16:42:56.257Z,4.70
2022-11-27T16:45:45.507Z,8.10
2022-11-27T16:48:34.490Z,7.80
2022-11-27T16:51:23.037Z,6.43
2022-11-27T16:54:12.050Z,5.95
2022-11-27T16:57:02.474Z,8.02
2022-11-27T16:59:50.710Z,6.22
2022-11-27T17:02:43.611Z,6.07
2022-11-27T17:05:31.402Z,5.23
2022-11-27T17:08:19.298Z,5.68
2022-11-27T17:11:10.228Z,4.28
2022-11-27T17:13:58.809Z,4.05
2022-11-27T17:16:46.420Z,6.43
2022-11-27T17:19:36.193Z,5.57
2022-11-27T17:22:24.240Z,5.32
2022-11-27T17:25:11.744Z,4.47
2022-11-27T17:27:59.503Z,6.38
2022-11-27T17:30:47.360Z,3.95
2022-11-27T17:33:37.216Z,11.40
2022-11-27T17:36:26.707Z,4.55
2022-11-27T17:39:15.361Z,4.38
2022-11-27T17:42:06.666Z,5.20
2022-11-27T17:44:57.104Z,8.95
2022-11-27T17:47:45.471Z,6.40
2022-11-27T17:50:33.318Z,5.15
2022-11-27T17:53:22.791Z,5.72
2022-11-27T17:56:11.440Z,8.07
2022-11-27T17:58:59.750Z,5.25
2022-11-27T18:01:48.427Z,7.03
2022-11-27T18:04:36.171Z,4.65
2022-11-27T18:07:24.407Z,9.27
2022-11-27T18:10:33.471Z,6.75
2022-11-27T18:13:41.491Z,5.22
2022-11-27T18:16:51.727Z,4.63
2022-11-27T18:19:59.987Z,6.78
2022-11-27T18:23:08.149Z,6.32
2022-11-27T18:26:18.598Z,7.68
2022-11-27T18:29:27.630Z,6.72
2022-11-27T18:32:36.978Z,7.28
2022-11-27T18:35:45.303Z,6.00
2022-11-27T18:38:53.941Z,5.70
2022-11-27T18:42:04.835Z,4.13
2022-11-27T18:45:31.830Z,6.40
2022-11-27T18:48:40.869Z,6.60
2022-11-27T18:51:50.739Z,4.30
2022-11-27T18:54:59.336Z,8.52
2022-11-27T18:58:09.814Z,5.32
2022-11-27T19:01:18.540Z,5.97
2022-11-27T19:04:26.748Z,5.88
2022-11-27T19:07:34.951Z,4.63
2022-11-27T19:10:42.972Z,5.03
2022-11-27T19:13:32.117Z,9.95
2022-11-27T19:16:21.685Z,8.25
2022-11-27T19:19:34.617Z,7.25
2022-11-27T19:22:19.926Z,6.85
2022-11-27T19:25:08.538Z,5.97
2022-11-27T19:27:56.421Z,6.13
2022-11-27T19:30:45.304Z,7.80
2022-11-27T19:33:35.887Z,7.10
2022-11-27T19:36:23.626Z,6.32
2022-11-27T19:39:13.970Z,6.95
2022-11-27T19:42:02.070Z,10.93
2022-11-27T19:44:50.744Z,5.80
2022-11-27T19:47:39.709Z,7.95
2022-11-27T19:50:27.857Z,7.32
2022-11-27T19:53:15.781Z,8.73
2022-11-27T19:56:03.749Z,6.85
2022-11-27T19:58:51.447Z,7.38
2022-11-27T20:01:40.390Z,10.38
2022-11-27T20:04:32.651Z,9.43
2022-11-27T20:07:21.161Z,7.32
2022-11-27T20:10:09.339Z,6.68
2022-11-27T20:13:17.277Z,9.50
2022-11-27T20:16:25.566Z,7.57
2022-11-27T20:19:39.461Z,8.30
2022-11-27T20:22:47.651Z,6.85
2022-11-27T20:25:55.992Z,5.00
2022-11-27T20:29:04.055Z,6.57
2022-11-27T20:32:14.503Z,6.50
2022-11-27T20:35:24.104Z,5.35
2022-11-27T20:38:31.858Z,9.70
2022-11-27T20:41:40.136Z,11.57
2022-11-27T20:44:48.206Z,8.90
2022-11-27T20:47:56.077Z,6.15
2022-11-27T20:51:07.808Z,5.82
2022-11-27T20:54:15.847Z,6.10
2022-11-27T20:57:23.994Z,6.57
2022-11-27T21:00:32.101Z,7.15
2022-11-27T21:03:41.278Z,6.85
2022-11-27T21:06:31.494Z,10.52
2022-11-27T21:09:19.483Z,6.32
2022-11-27T21:12:07.364Z,5.18
2022-11-27T21:14:54.768Z,5.32
2022-11-27T21:17:42.327Z,6.90
2022-11-27T21:20:30.277Z,6.18
2022-11-27T21:23:21.585Z,5.45
2022-11-27T21:26:09.618Z,4.82
2022-11-27T21:28:57.472Z,7.57
2022-11-27T21:31:47.590Z,6.50
2022-11-27T21:34:36.201Z,6.18
2022-11-27T21:37:24.608Z,10.20
2022-11-27T21:40:14.572Z,45.45
2022-11-27T21:43:02.314Z,63.75
2022-11-27T21:45:49.921Z,58.75
2022-11-27T21:48:38.138Z,52.42
2022-11-27T21:51:27.264Z,56.88
2022-11-27T21:54:16.202Z,53.78
2022-11-27T21:57:05.429Z,50.75
2022-11-27T21:59:54.268Z,50.22
2022-11-27T22:02:41.966Z,44.47
2022-11-27T22:05:30.035Z,39.85
2022-11-27T22:08:17.736Z,46.55
2022-11-27T22:11:06.923Z,44.25
2022-11-27T22:13:56.928Z,44.88
2022-11-27T22:16:47.132Z,38.60
2022-11-27T22:19:40.244Z,42.47
2022-11-27T22:22:27.981Z,31.13
2022-11-27T22:25:17.906Z,36.40
2022-11-27T22:28:05.804Z,34.35
2022-11-27T22:30:54.941Z,35.28
2022-11-27T22:33:43.316Z,34.53
2022-11-27T22:36:31.852Z,34.08
2022-11-27T22:39:20.205Z,28.45
2022-11-27T22:42:07.748Z,29.70
2022-11-27T22:44:55.322Z,29.35
2022-11-27T22:47:44.813Z,29.45
2022-11-27T22:50:32.587Z,27.95
2022-11-27T22:53:20.427Z,24.30
2022-11-27T22:56:09.956Z,23.15
2022-11-27T22:59:24.491Z,26.58
2022-11-27T23:02:06.530Z,23.25
2022-11-27T23:04:55.823Z,24.83
2022-11-27T23:07:44.001Z,20.85
2022-11-27T23:10:31.804Z,21.25
2022-11-27T23:13:19.674Z,18.55
2022-11-27T23:16:07.771Z,23.05
2022-11-27T23:19:14.347Z,24.58
2022-11-27T23:22:22.184Z,17.73
2022-11-27T23:25:30.755Z,16.75
2022-11-27T23:28:38.617Z,19.10
2022-11-27T23:31:46.664Z,18.45
2022-11-27T23:34:54.616Z,18.48
2022-11-27T23:38:03.866Z,19.13
2022-11-27T23:41:12.964Z,15.15
2022-11-27T23:44:21.612Z,14.60
2022-11-27T23:47:30.322Z,18.25
2022-11-27T23:50:40.096Z,13.30
2022-11-27T23:53:50.283Z,13.73
2022-11-27T23:56:58.547Z,12.00
